Time;durP1;ratioP1;P1;durP2;ratioP2;P2;SDS_P1;SDS_P2;PMS_P1;PMS_P2;Temp;Humidity;BMP_temperature;BMP_pressure;BME280_temperature;BME280_humidity;BME280_pressure;Samples;Min_cycle;Max_cycle;Signal;HPM_P1;HPM_P2
2023/08/22 00:00:59;;;;;;;13.50;3.00;;;;;;;;;;5062407;28;20040;-78
2023/08/22 00:03:25;;;;;;;9.55;3.22;;;;;;;;;;5045941;28;20479;-78
2023/08/22 00:05:51;;;;;;;9.50;3.67;;;;;;;;;;5045195;28;20482;-77
2023/08/22 00:08:17;;;;;;;10.73;3.33;;;;;;;;;;5045615;28;20085;-79
2023/08/22 00:10:46;;;;;;;6.93;3.20;;;;;;;;;;5045953;28;20028;-77
2023/08/22 00:13:12;;;;;;;7.80;3.20;;;;;;;;;;5046095;28;20037;-79
2023/08/22 00:15:38;;;;;;;8.00;2.58;;;;;;;;;;5061805;28;20041;-78
2023/08/22 00:18:04;;;;;;;8.32;3.38;;;;;;;;;;5062206;28;20067;-78
2023/08/22 00:20:30;;;;;;;15.80;3.85;;;;;;;;;;5061415;28;20064;-76
2023/08/22 00:22:56;;;;;;;12.48;3.63;;;;;;;;;;5045501;28;20139;-78
2023/08/22 00:25:22;;;;;;;10.43;3.45;;;;;;;;;;5062200;28;20040;-78
2023/08/22 00:27:48;;;;;;;8.05;3.42;;;;;;;;;;5062221;28;20028;-79
2023/08/22 00:30:14;;;;;;;10.93;3.70;;;;;;;;;;5046108;28;20063;-77
2023/08/22 00:32:40;;;;;;;8.38;3.72;;;;;;;;;;5061078;28;20032;-78
2023/08/22 00:35:06;;;;;;;12.35;4.20;;;;;;;;;;5061794;28;20111;-79
2023/08/22 00:37:32;;;;;;;13.02;4.97;;;;;;;;;;5044483;28;20029;-76
2023/08/22 00:40:00;;;;;;;17.45;4.38;;;;;;;;;;5038165;28;20051;-78
2023/08/22 00:42:25;;;;;;;10.00;3.50;;;;;;;;;;5039676;28;20072;-77
2023/08/22 00:44:53;;;;;;;7.65;3.78;;;;;;;;;;5062446;28;20112;-79
2023/08/22 00:47:22;;;;;;;11.63;4.07;;;;;;;;;;5037949;28;20262;-79
2023/08/22 00:49:48;;;;;;;9.48;3.60;;;;;;;;;;5038356;28;20532;-78
2023/08/22 00:52:17;;;;;;;8.18;3.72;;;;;;;;;;5043872;28;20029;-78
2023/08/22 00:54:43;;;;;;;8.90;4.18;;;;;;;;;;5062269;28;20150;-79
2023/08/22 00:57:10;;;;;;;10.07;4.35;;;;;;;;;;5061375;28;20116;-78
2023/08/22 00:59:36;;;;;;;8.07;3.55;;;;;;;;;;5058869;28;20045;-77
2023/08/22 01:02:04;;;;;;;11.85;3.38;;;;;;;;;;5045306;28;20045;-79
2023/08/22 01:04:30;;;;;;;6.47;3.28;;;;;;;;;;5060579;28;20032;-79
2023/08/22 01:06:58;;;;;;;10.32;3.92;;;;;;;;;;5060518;28;20815;-79
2023/08/22 01:09:33;;;;;;;10.75;3.67;;;;;;;;;;5043852;28;20419;-78
2023/08/22 01:12:17;;;;;;;11.20;3.55;;;;;;;;;;5042282;28;20032;-79
2023/08/22 01:14:49;;;;;;;6.90;3.60;;;;;;;;;;5045139;28;20034;-77
2023/08/22 01:17:15;;;;;;;;;;;;;;;;;;5045365;28;20037;-78
2023/08/22 01:19:41;;;;;;;11.05;4.22;;;;;;;;;;5048308;28;20352;-79
2023/08/22 01:22:07;;;;;;;12.43;3.88;;;;;;;;;;5060611;28;20033;-77
2023/08/22 01:24:33;;;;;;;9.07;3.50;;;;;;;;;;5038617;28;20044;-80
2023/08/22 01:26:59;;;;;;;9.70;3.72;;;;;;;;;;5060687;28;20983;-78
2023/08/22 01:29:36;;;;;;;10.23;3.95;;;;;;;;;;5045825;28;20068;-79
2023/08/22 01:32:21;;;;;;;13.25;3.58;;;;;;;;;;5062232;28;20021;-77
2023/08/22 01:34:50;;;;;;;9.90;3.90;;;;;;;;;;5044207;28;20025;-79
2023/08/22 01:37:16;;;;;;;9.98;4.07;;;;;;;;;;5060682;28;20045;-78
2023/08/22 01:39:42;;;;;;;8.02;4.30;;;;;;;;;;5045162;28;20413;-79
2023/08/22 01:42:11;;;;;;;10.85;4.15;;;;;;;;;;5060777;28;20123;-78
2023/08/22 01:44:37;;;;;;;11.15;3.60;;;;;;;;;;5061154;28;20041;-78
2023/08/22 01:47:06;;;;;;;8.93;3.50;;;;;;;;;;5061125;28;20067;-79
2023/08/22 01:49:36;;;;;;;8.13;3.78;;;;;;;;;;5060232;28;20040;-79
2023/08/22 01:52:02;;;;;;;10.25;5.13;;;;;;;;;;5045449;28;20028;-77
2023/08/22 01:54:28;;;;;;;12.32;4.03;;;;;;;;;;5059368;28;20391;-79
2023/08/22 01:56:56;;;;;;;7.03;3.65;;;;;;;;;;5059789;28;20051;-78
2023/08/22 01:59:22;;;;;;;9.05;4.53;;;;;;;;;;5044049;28;20174;-79
2023/08/22 02:01:48;;;;;;;8.48;3.75;;;;;;;;;;5059793;28;20064;-78
2023/08/22 02:04:14;;;;;;;10.80;4.53;;;;;;;;;;5059900;28;20429;-77
2023/08/22 02:06:42;;;;;;;9.10;3.85;;;;;;;;;;5060402;28;20040;-78
2023/08/22 02:09:09;;;;;;;11.00;4.18;;;;;;;;;;5060806;28;20448;-78
2023/08/22 02:11:35;;;;;;;8.60;4.43;;;;;;;;;;5061955;28;20036;-77
2023/08/22 02:14:02;;;;;;;13.70;4.60;;;;;;;;;;5060311;28;20028;-78
2023/08/22 02:16:28;;;;;;;9.30;4.35;;;;;;;;;;5061593;28;20039;-79
2023/08/22 02:18:56;;;;;;;6.00;3.80;;;;;;;;;;5061925;28;20036;-78
2023/08/22 02:21:22;;;;;;;8.65;3.90;;;;;;;;;;5044642;28;20047;-79
2023/08/22 02:23:48;;;;;;;13.30;4.90;;;;;;;;;;5065307;28;20032;-77
2023/08/22 02:26:16;;;;;;;14.13;4.72;;;;;;;;;;5064232;28;20051;-78
2023/08/22 02:28:41;;;;;;;11.02;4.82;;;;;;;;;;5063939;28;20075;-79
2023/08/22 02:31:08;;;;;;;10.65;4.50;;;;;;;;;;5064694;28;20179;-77
2023/08/22 02:33:33;;;;;;;8.43;4.53;;;;;;;;;;5065268;28;20048;-78
2023/08/22 02:35:59;;;;;;;8.85;4.82;;;;;;;;;;5064906;28;20036;-79
2023/08/22 02:38:25;;;;;;;8.40;4.32;;;;;;;;;;5063945;28;20036;-77
2023/08/22 02:40:51;;;;;;;10.50;4.97;;;;;;;;;;5064094;28;20098;-77
2023/08/22 02:43:17;;;;;;;6.50;4.35;;;;;;;;;;5064641;28;20048;-78
2023/08/22 02:45:47;;;;;;;12.10;5.18;;;;;;;;;;5046403;28;20032;-79
2023/08/22 02:48:13;;;;;;;10.35;5.20;;;;;;;;;;5064697;28;20075;-76
2023/08/22 02:50:39;;;;;;;7.65;4.40;;;;;;;;;;5064298;28;20060;-79
2023/08/22 02:53:05;;;;;;;10.02;4.57;;;;;;;;;;5041791;28;20716;-78
2023/08/22 02:55:31;;;;;;;7.70;4.30;;;;;;;;;;5064253;28;20468;-81
2023/08/22 02:57:57;;;;;;;10.23;5.20;;;;;;;;;;5064433;28;20067;-77
2023/08/22 03:00:23;;;;;;;9.27;4.80;;;;;;;;;;5042388;28;20040;-78
2023/08/22 03:02:52;;;;;;;8.68;4.55;;;;;;;;;;5040185;28;20074;-77
2023/08/22 03:05:18;;;;;;;6.50;4.05;;;;;;;;;;5064605;28;20024;-77
2023/08/22 03:07:44;;;;;;;6.88;4.10;;;;;;;;;;5047896;28;20051;-79
2023/08/22 03:10:10;;;;;;;8.77;3.65;;;;;;;;;;5063970;28;20024;-78
2023/08/22 03:12:38;;;;;;;11.25;4.25;;;;;;;;;;5064323;28;20115;-80
2023/08/22 03:15:05;;;;;;;8.35;4.03;;;;;;;;;;5064709;28;20029;-78
2023/08/22 03:17:31;;;;;;;9.68;3.65;;;;;;;;;;5063835;28;20121;-79
2023/08/22 03:19:57;;;;;;;12.43;4.13;;;;;;;;;;5045482;28;20119;-79
2023/08/22 03:22:24;;;;;;;10.02;4.28;;;;;;;;;;5063586;28;20036;-78
2023/08/22 03:24:50;;;;;;;10.23;4.50;;;;;;;;;;5063915;28;20457;-79
2023/08/22 03:27:16;;;;;;;11.23;5.18;;;;;;;;;;5061601;28;20124;-79
2023/08/22 03:29:44;;;;;;;11.68;4.95;;;;;;;;;;5040181;28;20325;-77
2023/08/22 03:32:10;;;;;;;14.10;4.90;;;;;;;;;;5062890;28;20063;-77
2023/08/22 03:34:36;;;;;;;13.07;5.00;;;;;;;;;;5063099;28;20481;-79
2023/08/22 03:37:02;;;;;;;9.10;4.88;;;;;;;;;;5046795;28;20043;-77
2023/08/22 03:39:28;;;;;;;8.80;4.55;;;;;;;;;;5039116;28;20764;-79
2023/08/22 03:41:54;;;;;;;7.85;4.78;;;;;;;;;;5045338;28;20040;-79
2023/08/22 03:44:20;;;;;;;8.40;5.10;;;;;;;;;;5062941;28;20037;-78
2023/08/22 03:46:47;;;;;;;9.32;4.68;;;;;;;;;;5045463;28;20028;-78
2023/08/22 03:49:15;;;;;;;8.80;4.82;;;;;;;;;;5048234;28;20055;-78
2023/08/22 03:51:41;;;;;;;12.88;4.60;;;;;;;;;;5046988;28;20086;-80
2023/08/22 03:54:07;;;;;;;16.27;5.47;;;;;;;;;;5048160;28;20028;-79
2023/08/22 03:56:35;;;;;;;9.45;4.47;;;;;;;;;;5062309;28;20039;-79
2023/08/22 03:59:04;;;;;;;11.77;4.90;;;;;;;;;;5044521;28;20029;-78
2023/08/22 04:01:32;;;;;;;9.10;4.10;;;;;;;;;;5046746;28;20056;-78
2023/08/22 04:03:58;;;;;;;13.45;5.03;;;;;;;;;;5063050;28;20036;-77
2023/08/22 04:06:25;;;;;;;10.52;4.68;;;;;;;;;;5061864;28;20044;-79
2023/08/22 04:08:51;;;;;;;11.68;5.45;;;;;;;;;;5045339;28;20125;-79
2023/08/22 04:11:17;;;;;;;9.13;5.03;;;;;;;;;;5062791;28;20063;-79
2023/08/22 04:13:43;;;;;;;9.00;4.47;;;;;;;;;;5046264;28;20116;-77
2023/08/22 04:16:09;;;;;;;12.13;4.97;;;;;;;;;;5062182;28;20040;-78
2023/08/22 04:18:35;;;;;;;11.05;4.95;;;;;;;;;;5061996;28;20459;-78
2023/08/22 04:21:04;;;;;;;7.78;4.28;;;;;;;;;;5062404;28;20040;-78
2023/08/22 04:23:30;;;;;;;6.68;4.32;;;;;;;;;;5046468;28;20036;-78
2023/08/22 04:25:56;;;;;;;14.68;5.90;;;;;;;;;;5062131;28;20773;-79
2023/08/22 04:28:22;;;;;;;7.88;5.18;;;;;;;;;;5060875;28;20032;-79
2023/08/22 04:30:51;;;;;;;8.27;4.90;;;;;;;;;;5063139;28;20036;-79
2023/08/22 04:33:17;;;;;;;7.65;4.88;;;;;;;;;;5038880;28;20056;-78
2023/08/22 04:35:43;;;;;;;9.27;5.00;;;;;;;;;;5062832;28;20117;-78
2023/08/22 04:38:09;;;;;;;8.32;4.97;;;;;;;;;;5044663;28;20115;-78
2023/08/22 04:40:35;;;;;;;12.93;5.03;;;;;;;;;;5063360;28;20037;-77
2023/08/22 04:43:01;;;;;;;6.90;4.72;;;;;;;;;;5060515;28;20697;-79
2023/08/22 04:45:27;;;;;;;10.82;5.15;;;;;;;;;;5060783;28;20024;-79
2023/08/22 04:47:53;;;;;;;10.45;5.40;;;;;;;;;;5061220;28;20043;-76
2023/08/22 04:50:21;;;;;;;9.40;5.25;;;;;;;;;;5045074;28;20464;-79
2023/08/22 04:52:47;;;;;;;13.00;4.97;;;;;;;;;;5061663;28;20385;-79
2023/08/22 04:55:13;;;;;;;10.88;5.47;;;;;;;;;;5062822;28;20037;-80
2023/08/22 04:57:41;;;;;;;15.65;5.57;;;;;;;;;;5045115;28;20055;-77
2023/08/22 05:00:11;;;;;;;14.75;6.55;;;;;;;;;;5062789;28;20123;-81
2023/08/22 05:02:39;;;;;;;9.50;5.50;;;;;;;;;;5046015;28;20505;-81
2023/08/22 05:05:07;;;;;;;10.63;5.65;;;;;;;;;;5045112;28;20044;-80
2023/08/22 05:07:33;;;;;;;10.70;5.97;;;;;;;;;;5059799;28;20040;-82
2023/08/22 05:09:59;;;;;;;9.95;5.40;;;;;;;;;;5046854;28;20648;-81
2023/08/22 05:12:27;;;;;;;14.80;5.35;;;;;;;;;;5061443;28;20121;-79
2023/08/22 05:14:53;;;;;;;11.00;5.93;;;;;;;;;;5045270;28;20029;-82
2023/08/22 05:17:19;;;;;;;8.88;4.95;;;;;;;;;;5045630;28;20558;-81
2023/08/22 05:19:45;;;;;;;9.50;5.70;;;;;;;;;;5062368;28;20040;-82
2023/08/22 05:22:11;;;;;;;13.50;5.57;;;;;;;;;;5062792;28;20042;-81
2023/08/22 05:24:37;;;;;;;11.43;5.95;;;;;;;;;;5061255;28;20048;-77
2023/08/22 05:27:03;;;;;;;10.57;5.97;;;;;;;;;;5059775;28;21070;-76
2023/08/22 05:29:29;;;;;;;8.52;5.72;;;;;;;;;;5060977;28;20039;-78
2023/08/22 05:31:55;;;;;;;10.65;5.82;;;;;;;;;;5043695;28;20184;-76
2023/08/22 05:34:21;;;;;;;12.95;5.53;;;;;;;;;;5042854;28;20032;-76
2023/08/22 05:36:49;;;;;;;10.45;5.28;;;;;;;;;;5036981;28;20028;-76
2023/08/22 05:39:15;;;;;;;8.57;5.22;;;;;;;;;;5060712;28;20032;-76
2023/08/22 05:41:41;;;;;;;19.00;6.22;;;;;;;;;;5060234;28;20029;-76
2023/08/22 05:44:07;;;;;;;17.80;5.85;;;;;;;;;;5059241;28;20051;-75
2023/08/22 05:46:35;;;;;;;9.30;6.28;;;;;;;;;;5060019;28;20105;-78
2023/08/22 05:49:01;;;;;;;13.48;6.25;;;;;;;;;;5059269;28;20032;-77
2023/08/22 05:51:27;;;;;;;11.13;6.43;;;;;;;;;;5043777;28;20029;-76
2023/08/22 05:53:53;;;;;;;11.18;6.63;;;;;;;;;;5037587;28;20063;-75
2023/08/22 05:56:19;;;;;;;14.48;6.95;;;;;;;;;;5064545;28;20036;-76
2023/08/22 05:58:45;;;;;;;13.25;6.18;;;;;;;;;;5065102;28;20082;-77
2023/08/22 06:01:11;;;;;;;12.35;6.20;;;;;;;;;;5064147;28;20040;-75
2023/08/22 06:03:41;;;;;;;11.43;6.63;;;;;;;;;;5064791;28;20043;-77
2023/08/22 06:06:07;;;;;;;20.85;8.15;;;;;;;;;;5046962;28;20032;-77
2023/08/22 06:08:33;;;;;;;18.42;7.28;;;;;;;;;;5040311;28;20856;-75
2023/08/22 06:10:59;;;;;;;14.98;7.72;;;;;;;;;;5041738;28;20067;-76
2023/08/22 06:13:25;;;;;;;15.13;7.32;;;;;;;;;;5064254;28;20060;-76
2023/08/22 06:15:53;;;;;;;16.92;8.57;;;;;;;;;;5046833;28;20046;-76
2023/08/22 06:18:19;;;;;;;18.55;7.78;;;;;;;;;;5047897;28;20781;-77
2023/08/22 06:20:46;;;;;;;14.45;8.45;;;;;;;;;;5046770;28;20032;-75
2023/08/22 06:23:14;;;;;;;19.70;8.75;;;;;;;;;;5040584;28;20036;-76
2023/08/22 06:25:40;;;;;;;17.52;7.70;;;;;;;;;;5046614;28;20043;-76
2023/08/22 06:28:08;;;;;;;17.23;8.23;;;;;;;;;;5048098;28;20028;-76
2023/08/22 06:30:34;;;;;;;15.50;7.13;;;;;;;;;;5040788;28;20705;-78
2023/08/22 06:33:00;;;;;;;14.52;6.85;;;;;;;;;;5062878;28;20036;-76
2023/08/22 06:35:28;;;;;;;16.83;8.38;;;;;;;;;;5063802;28;20028;-76
2023/08/22 06:37:54;;;;;;;17.35;8.50;;;;;;;;;;5042342;28;20058;-76
2023/08/22 06:40:22;;;;;;;26.90;11.48;;;;;;;;;;5046822;28;20445;-76
2023/08/22 06:42:51;;;;;;;19.15;9.45;;;;;;;;;;5047186;28;20686;-76
2023/08/22 06:45:17;;;;;;;21.23;11.27;;;;;;;;;;5046956;28;20036;-77
2023/08/22 06:47:46;;;;;;;18.52;8.95;;;;;;;;;;5045663;28;20071;-74
2023/08/22 06:50:12;;;;;;;25.05;10.73;;;;;;;;;;5062854;28;20151;-77
2023/08/22 06:52:38;;;;;;;20.15;9.27;;;;;;;;;;5063730;28;20024;-76
2023/08/22 06:55:05;;;;;;;19.70;9.90;;;;;;;;;;5062702;28;20037;-76
2023/08/22 06:57:33;;;;;;;24.63;9.40;;;;;;;;;;5044339;28;20114;-77
2023/08/22 06:59:59;;;;;;;19.98;9.50;;;;;;;;;;5063680;28;20036;-76
2023/08/22 07:02:25;;;;;;;18.50;9.35;;;;;;;;;;5062640;28;20040;-76
2023/08/22 07:04:51;;;;;;;22.10;9.23;;;;;;;;;;5045483;28;20070;-75
2023/08/22 07:07:17;;;;;;;16.00;9.93;;;;;;;;;;5045664;28;20040;-75
2023/08/22 07:09:43;;;;;;;18.05;10.25;;;;;;;;;;5062614;28;20081;-76
2023/08/22 07:12:09;;;;;;;16.23;9.73;;;;;;;;;;5040296;28;20428;-77
2023/08/22 07:14:41;;;;;;;17.08;10.10;;;;;;;;;;5046334;28;20044;-77
2023/08/22 07:17:07;;;;;;;;;;;;;;;;;;5063370;28;20047;-77
2023/08/22 07:19:33;;;;;;;26.15;10.77;;;;;;;;;;5062998;28;19912;-78
2023/08/22 07:22:02;;;;;;;21.48;11.07;;;;;;;;;;5044122;28;20042;-74
2023/08/22 07:24:28;;;;;;;21.38;11.32;;;;;;;;;;5062973;28;20036;-76
2023/08/22 07:26:53;;;;;;;29.10;12.18;;;;;;;;;;5062593;28;20441;-75
2023/08/22 07:29:22;;;;;;;22.52;10.60;;;;;;;;;;5039225;28;20045;-76
2023/08/22 07:31:48;;;;;;;21.58;10.70;;;;;;;;;;5062858;28;20028;-76
2023/08/22 07:34:14;;;;;;;22.60;9.98;;;;;;;;;;5063011;28;20085;-76
2023/08/22 07:36:40;;;;;;;16.30;9.38;;;;;;;;;;5045704;28;20032;-76
2023/08/22 07:39:06;;;;;;;26.23;12.80;;;;;;;;;;5046134;28;20032;-78
2023/08/22 07:41:32;;;;;;;17.52;10.00;;;;;;;;;;5045508;28;20040;-76
2023/08/22 07:43:58;;;;;;;22.27;10.85;;;;;;;;;;5062119;28;20071;-73
2023/08/22 07:46:24;;;;;;;15.85;10.48;;;;;;;;;;5038919;28;20147;-76
2023/08/22 07:48:50;;;;;;;19.58;9.82;;;;;;;;;;5061580;28;20028;-76
2023/08/22 07:51:16;;;;;;;15.95;9.27;;;;;;;;;;5062364;28;20024;-76
2023/08/22 07:53:42;;;;;;;22.08;9.88;;;;;;;;;;5062049;28;20053;-77
2023/08/22 07:56:08;;;;;;;18.60;10.10;;;;;;;;;;5045519;28;20128;-76
2023/08/22 07:58:34;;;;;;;21.45;9.50;;;;;;;;;;5061165;28;20032;-73
2023/08/22 08:01:04;;;;;;;15.00;8.73;;;;;;;;;;5062115;28;20109;-77
2023/08/22 08:03:30;;;;;;;21.35;10.85;;;;;;;;;;5043707;28;20033;-80
2023/08/22 08:05:56;;;;;;;22.55;10.43;;;;;;;;;;5049317;28;20033;-81
2023/08/22 08:08:22;;;;;;;18.17;8.63;;;;;;;;;;5064218;28;20035;-81
2023/08/22 08:10:50;;;;;;;19.35;9.35;;;;;;;;;;5047315;28;20024;-84
2023/08/22 08:13:16;;;;;;;17.83;10.57;;;;;;;;;;5049183;28;20024;-79
2023/08/22 08:15:42;;;;;;;17.13;9.38;;;;;;;;;;5045613;28;20120;-81
2023/08/22 08:18:10;;;;;;;18.00;10.05;;;;;;;;;;5049965;28;20425;-80
2023/08/22 08:20:36;;;;;;;18.52;10.40;;;;;;;;;;5067269;28;20017;-82
2023/08/22 08:23:05;;;;;;;17.15;9.10;;;;;;;;;;5046389;28;20032;-81
2023/08/22 08:25:31;;;;;;;18.33;9.77;;;;;;;;;;5065436;28;20039;-82
2023/08/22 08:27:59;;;;;;;19.55;9.73;;;;;;;;;;5065047;28;20544;-81
2023/08/22 08:30:28;;;;;;;28.20;10.73;;;;;;;;;;5048577;28;20444;-81
2023/08/22 08:32:54;;;;;;;19.33;9.18;;;;;;;;;;5048652;28;20025;-79
2023/08/22 08:35:20;;;;;;;16.30;9.77;;;;;;;;;;5043125;28;20092;-84
2023/08/22 08:37:49;;;;;;;16.40;9.52;;;;;;;;;;5066110;28;20524;-84
2023/08/22 08:40:15;;;;;;;18.20;10.02;;;;;;;;;;5048669;28;20032;-82
2023/08/22 08:42:42;;;;;;;17.42;9.15;;;;;;;;;;5048183;28;20028;-84
2023/08/22 08:45:08;;;;;;;27.75;10.32;;;;;;;;;;5063546;28;20729;-82
2023/08/22 08:47:35;;;;;;;16.75;8.88;;;;;;;;;;5047293;28;20035;-83
2023/08/22 08:50:01;;;;;;;14.60;8.20;;;;;;;;;;5065188;28;20025;-81
2023/08/22 08:52:30;;;;;;;15.93;6.75;;;;;;;;;;5047155;28;20029;-83
2023/08/22 08:54:58;;;;;;;18.95;8.80;;;;;;;;;;5043232;28;20499;-84
2023/08/22 08:57:24;;;;;;;18.60;8.65;;;;;;;;;;5062758;28;20037;-83
2023/08/22 08:59:50;;;;;;;16.23;8.88;;;;;;;;;;5063744;28;20107;-83
2023/08/22 09:02:16;;;;;;;20.35;8.23;;;;;;;;;;5042895;28;20123;-80
2023/08/22 09:04:42;;;;;;;23.00;9.57;;;;;;;;;;5042802;28;20033;-82
2023/08/22 09:07:09;;;;;;;23.73;9.43;;;;;;;;;;5047079;28;20028;-83
2023/08/22 09:09:35;;;;;;;13.85;6.57;;;;;;;;;;5062993;28;20025;-81
2023/08/22 09:12:06;;;;;;;16.50;7.03;;;;;;;;;;5041769;28;20024;-83
2023/08/22 09:14:32;;;;;;;18.02;7.72;;;;;;;;;;5049246;28;20328;-81
2023/08/22 09:17:07;;;;;;;23.77;8.15;;;;;;;;;;5046949;28;20032;-82
2023/08/22 09:19:33;;;;;;;15.75;7.47;;;;;;;;;;5046363;28;20036;-80
2023/08/22 09:22:03;;;;;;;15.32;6.68;;;;;;;;;;5041561;28;20436;-82
2023/08/22 09:24:30;;;;;;;12.35;6.82;;;;;;;;;;5063571;28;20033;-82
2023/08/22 09:26:56;;;;;;;24.35;6.53;;;;;;;;;;5044397;28;20487;-80
2023/08/22 09:29:27;;;;;;;18.73;6.03;;;;;;;;;;5046340;28;20120;-81
2023/08/22 09:31:57;;;;;;;14.75;5.13;;;;;;;;;;5062787;28;20035;-80
2023/08/22 09:34:25;;;;;;;13.95;5.20;;;;;;;;;;5041028;28;20029;-81
2023/08/22 09:36:52;;;;;;;18.00;4.75;;;;;;;;;;5063070;28;20029;-81
2023/08/22 09:39:19;;;;;;;14.82;6.03;;;;;;;;;;5042028;28;20058;-80
2023/08/22 09:41:45;;;;;;;12.88;5.55;;;;;;;;;;5046878;28;20024;-79
2023/08/22 09:44:12;;;;;;;10.10;5.05;;;;;;;;;;5064528;28;20033;-81
2023/08/22 09:46:42;;;;;;;12.18;4.38;;;;;;;;;;5061165;28;20116;-81
2023/08/22 09:49:11;;;;;;;16.38;5.00;;;;;;;;;;5064336;28;20055;-83
2023/08/22 09:51:38;;;;;;;16.20;4.32;;;;;;;;;;5041390;28;20028;-83
2023/08/22 09:54:06;;;;;;;16.25;5.22;;;;;;;;;;5044496;28;20912;-82
2023/08/22 09:56:34;;;;;;;13.25;5.00;;;;;;;;;;5040778;28;20167;-83
2023/08/22 09:59:01;;;;;;;13.38;4.88;;;;;;;;;;5045898;28;20032;-81
2023/08/22 10:01:33;;;;;;;11.88;4.57;;;;;;;;;;5045304;28;20054;-82
2023/08/22 10:04:02;;;;;;;14.93;5.65;;;;;;;;;;5045153;28;20658;-81
2023/08/22 10:06:30;;;;;;;12.80;3.72;;;;;;;;;;5040173;28;20050;-81
2023/08/22 10:08:56;;;;;;;13.35;3.65;;;;;;;;;;5062199;28;20476;-81
2023/08/22 10:11:23;;;;;;;14.32;4.40;;;;;;;;;;5045777;28;20029;-78
2023/08/22 10:13:49;;;;;;;14.88;4.53;;;;;;;;;;5046068;28;20043;-83
2023/08/22 10:16:17;;;;;;;13.80;4.10;;;;;;;;;;5044316;28;20036;-81
2023/08/22 10:18:44;;;;;;;12.45;4.97;;;;;;;;;;5045921;28;20024;-79
2023/08/22 10:21:10;;;;;;;8.77;4.20;;;;;;;;;;5060632;28;20075;-81
2023/08/22 10:23:55;;;;;;;11.68;5.43;;;;;;;;;;5060682;28;20128;-82
2023/08/22 10:26:21;;;;;;;7.53;4.38;;;;;;;;;;5045944;28;21685;-78
2023/08/22 10:29:06;;;;;;;8.57;4.50;;;;;;;;;;5061175;28;20052;-80
2023/08/22 10:31:32;;;;;;;8.70;3.75;;;;;;;;;;5040927;28;20056;-80
2023/08/22 10:34:07;;;;;;;12.38;5.13;;;;;;;;;;5043526;28;20055;-80
2023/08/22 10:36:53;;;;;;;12.85;4.75;;;;;;;;;;5045177;28;20029;-82
2023/08/22 10:39:35;;;;;;;11.18;4.75;;;;;;;;;;5046109;28;20036;-82
2023/08/22 10:42:01;;;;;;;13.90;3.80;;;;;;;;;;5051022;28;20115;-81
2023/08/22 10:44:30;;;;;;;10.57;4.18;;;;;;;;;;5049697;28;20037;-80
2023/08/22 10:47:03;;;;;;;10.35;3.70;;;;;;;;;;5066822;28;20167;-81
2023/08/22 10:49:33;;;;;;;8.18;3.42;;;;;;;;;;5065078;28;20032;-80
2023/08/22 10:52:05;;;;;;;10.98;3.95;;;;;;;;;;5048961;28;20032;-80
2023/08/22 10:54:31;;;;;;;8.30;3.28;;;;;;;;;;5043749;28;20097;-83
2023/08/22 10:57:16;;;;;;;11.95;3.30;;;;;;;;;;5063686;28;20032;-79
2023/08/22 11:00:17;;;;;;;11.23;3.13;;;;;;;;;;5047345;28;20476;-81
2023/08/22 11:02:43;;;;;;;9.63;3.53;;;;;;;;;;5046713;28;20063;-80
2023/08/22 11:05:13;;;;;;;7.57;3.03;;;;;;;;;;5065334;28;20029;-81
2023/08/22 11:07:46;;;;;;;9.25;3.22;;;;;;;;;;5049390;28;20097;-81
2023/08/22 11:10:16;;;;;;;11.88;3.20;;;;;;;;;;5048745;28;20025;-84
2023/08/22 11:12:45;;;;;;;12.15;2.65;;;;;;;;;;5064658;28;20031;-81
2023/08/22 11:15:12;;;;;;;6.43;2.97;;;;;;;;;;5046246;28;20052;-83
2023/08/22 11:17:40;;;;;;;5.47;2.53;;;;;;;;;;5065543;28;20966;-83
2023/08/22 11:20:12;;;;;;;12.85;2.97;;;;;;;;;;5048473;28;20032;-82
2023/08/22 11:22:38;;;;;;;5.93;2.97;;;;;;;;;;5065036;28;20025;-81
2023/08/22 11:25:04;;;;;;;12.70;2.58;;;;;;;;;;5042565;28;20020;-81
2023/08/22 11:27:30;;;;;;;7.63;2.97;;;;;;;;;;5042175;28;20036;-81
2023/08/22 11:29:56;;;;;;;8.63;2.97;;;;;;;;;;5066948;28;20115;-82
2023/08/22 11:32:25;;;;;;;6.38;2.58;;;;;;;;;;5046261;28;20715;-82
2023/08/22 11:34:52;;;;;;;7.93;2.67;;;;;;;;;;5044118;28;20028;-82
2023/08/22 11:37:19;;;;;;;6.78;3.17;;;;;;;;;;5063398;28;20033;-82
2023/08/22 11:39:48;;;;;;;8.73;2.17;;;;;;;;;;5064718;28;20364;-81
2023/08/22 11:42:15;;;;;;;5.68;1.88;;;;;;;;;;5062593;28;20091;-79
2023/08/22 11:45:00;;;;;;;8.15;2.50;;;;;;;;;;5062123;28;20025;-80
2023/08/22 11:47:43;;;;;;;8.00;3.15;;;;;;;;;;5063716;28;20033;-79
2023/08/22 11:50:16;;;;;;;10.68;2.55;;;;;;;;;;5045898;28;20029;-79
2023/08/22 11:52:43;;;;;;;5.88;1.80;;;;;;;;;;5064028;28;20033;-82
2023/08/22 11:55:10;;;;;;;7.20;2.15;;;;;;;;;;5047055;28;20025;-79
2023/08/22 11:57:36;;;;;;;8.77;2.17;;;;;;;;;;5046853;28;20118;-78
2023/08/22 12:00:09;;;;;;;8.93;2.00;;;;;;;;;;5065253;28;20032;-79
2023/08/22 12:02:35;;;;;;;8.30;1.92;;;;;;;;;;5045029;28;20105;-79
2023/08/22 12:05:02;;;;;;;4.38;1.52;;;;;;;;;;5062774;28;20063;-81
2023/08/22 12:07:28;;;;;;;8.23;2.78;;;;;;;;;;5047116;28;20098;-82
2023/08/22 12:10:00;;;;;;;9.50;2.20;;;;;;;;;;5047579;28;20036;-79
2023/08/22 12:12:27;;;;;;;4.72;1.58;;;;;;;;;;5063051;28;20028;-79
2023/08/22 12:14:53;;;;;;;7.57;1.98;;;;;;;;;;5063783;28;20052;-82
2023/08/22 12:17:22;;;;;;;9.45;2.70;;;;;;;;;;5063222;28;20032;-81
2023/08/22 12:19:48;;;;;;;9.07;2.00;;;;;;;;;;5046580;28;20123;-80
2023/08/22 12:22:14;;;;;;;6.95;1.95;;;;;;;;;;5052250;28;20043;-79
2023/08/22 12:24:42;;;;;;;9.48;2.35;;;;;;;;;;5065742;28;20028;-79
2023/08/22 12:27:08;;;;;;;8.65;2.40;;;;;;;;;;5046929;28;20029;-80
2023/08/22 12:29:34;;;;;;;6.47;2.22;;;;;;;;;;5047930;28;20020;-78
2023/08/22 12:32:00;;;;;;;11.98;3.33;;;;;;;;;;5065302;28;20098;-80
2023/08/22 12:34:28;;;;;;;9.27;3.17;;;;;;;;;;5047185;28;20043;-82
2023/08/22 12:36:54;;;;;;;10.52;3.60;;;;;;;;;;5063175;28;20032;-79
2023/08/22 12:39:20;;;;;;;11.48;2.90;;;;;;;;;;5045887;28;20035;-82
2023/08/22 12:41:46;;;;;;;9.98;2.58;;;;;;;;;;5063837;28;20121;-80
2023/08/22 12:44:14;;;;;;;7.80;2.85;;;;;;;;;;5063870;28;20047;-82
2023/08/22 12:46:43;;;;;;;9.93;2.95;;;;;;;;;;5046648;28;20025;-79
2023/08/22 12:49:09;;;;;;;7.15;3.20;;;;;;;;;;5064112;28;20035;-81
2023/08/22 12:51:35;;;;;;;10.50;2.35;;;;;;;;;;5046232;28;20032;-79
2023/08/22 12:54:02;;;;;;;5.28;2.53;;;;;;;;;;5064479;28;20043;-81
2023/08/22 12:56:30;;;;;;;8.13;2.55;;;;;;;;;;5061152;28;20032;-81
2023/08/22 12:58:56;;;;;;;9.95;3.13;;;;;;;;;;5045732;28;20467;-78
2023/08/22 13:01:22;;;;;;;12.05;2.70;;;;;;;;;;5044914;28;20032;-82
2023/08/22 13:03:52;;;;;;;4.32;2.50;;;;;;;;;;5046377;28;20721;-81
2023/08/22 13:06:21;;;;;;;5.60;3.00;;;;;;;;;;5046250;28;20036;-80
2023/08/22 13:08:47;;;;;;;8.07;2.90;;;;;;;;;;5064014;28;20036;-80
2023/08/22 13:11:13;;;;;;;5.97;1.90;;;;;;;;;;5064098;28;20562;-79
2023/08/22 13:13:39;;;;;;;14.50;3.22;;;;;;;;;;5062146;28;20124;-79
2023/08/22 13:16:05;;;;;;;7.25;2.47;;;;;;;;;;5044928;28;20029;-81
2023/08/22 13:18:34;;;;;;;4.82;2.30;;;;;;;;;;5044854;28;20037;-81
2023/08/22 13:21:00;;;;;;;10.60;2.78;;;;;;;;;;5046105;28;20074;-79
2023/08/22 13:23:28;;;;;;;11.63;2.17;;;;;;;;;;5046273;28;20036;-80
2023/08/22 13:25:56;;;;;;;7.80;2.30;;;;;;;;;;5040929;28;20056;-80
2023/08/22 13:28:22;;;;;;;8.13;2.00;;;;;;;;;;5046691;28;20115;-78
2023/08/22 13:30:48;;;;;;;8.77;2.58;;;;;;;;;;5063048;28;20103;-79
2023/08/22 13:33:14;;;;;;;8.40;2.25;;;;;;;;;;5062814;28;20028;-80
2023/08/22 13:35:43;;;;;;;7.72;2.60;;;;;;;;;;5045696;28;20402;-82
2023/08/22 13:38:09;;;;;;;6.78;2.80;;;;;;;;;;5044832;28;20025;-79
2023/08/22 13:40:35;;;;;;;7.38;2.88;;;;;;;;;;5063422;28;20514;-82
2023/08/22 13:43:01;;;;;;;6.25;2.80;;;;;;;;;;5063107;28;20111;-80
2023/08/22 13:45:29;;;;;;;5.78;2.35;;;;;;;;;;5063701;28;20151;-81
2023/08/22 13:47:55;;;;;;;6.93;3.05;;;;;;;;;;5045910;28;20469;-78
2023/08/22 13:50:22;;;;;;;8.77;2.33;;;;;;;;;;5044202;28;20092;-80
2023/08/22 13:52:48;;;;;;;6.50;2.80;;;;;;;;;;5063536;28;20051;-82
2023/08/22 13:55:14;;;;;;;5.75;2.00;;;;;;;;;;5061621;28;20031;-81
2023/08/22 13:57:42;;;;;;;4.25;1.08;;;;;;;;;;5062660;28;20036;-78
2023/08/22 14:00:08;;;;;;;4.97;1.25;;;;;;;;;;5040006;28;20029;-79
2023/08/22 14:02:34;;;;;;;4.82;1.20;;;;;;;;;;5044412;28;20071;-78
2023/08/22 14:05:00;;;;;;;2.38;0.88;;;;;;;;;;5046317;28;20726;-82
2023/08/22 14:07:29;;;;;;;3.80;1.33;;;;;;;;;;5040677;28;20033;-80
2023/08/22 14:09:55;;;;;;;3.10;0.93;;;;;;;;;;5060539;28;20033;-80
2023/08/22 14:12:21;;;;;;;6.63;1.10;;;;;;;;;;5041903;28;20025;-81
2023/08/22 14:14:47;;;;;;;3.83;1.10;;;;;;;;;;5063840;28;20464;-78
2023/08/22 14:17:15;;;;;;;4.30;0.90;;;;;;;;;;5066688;28;20043;-80
2023/08/22 14:19:43;;;;;;;5.88;1.25;;;;;;;;;;5066543;28;20622;-80
2023/08/22 14:22:09;;;;;;;7.32;1.30;;;;;;;;;;5069428;28;20025;-82
2023/08/22 14:24:35;;;;;;;3.45;0.90;;;;;;;;;;5049132;28;20094;-78
2023/08/22 14:27:01;;;;;;;7.75;1.35;;;;;;;;;;5062243;28;20066;-78
2023/08/22 14:29:27;;;;;;;5.85;1.42;;;;;;;;;;5044826;28;20027;-79
2023/08/22 14:31:53;;;;;;;4.38;1.25;;;;;;;;;;5047549;28;20372;-80
2023/08/22 14:34:19;;;;;;;6.53;1.40;;;;;;;;;;5049024;28;20024;-79
2023/08/22 14:36:47;;;;;;;5.07;1.73;;;;;;;;;;5046916;28;20032;-80